sensor_id;sensor_type;location;lat;lon;timestamp;P1;durP1;ratioP1;P2;durP2;ratioP2
73474;SDS011;61711;52.266;10.542;2023-06-22T00:00:51;14.65;;;11.10;;
73474;SDS011;61711;52.266;10.542;2023-06-22T00:03:17;13.38;;;11.50;;
73474;SDS011;61711;52.266;10.542;2023-06-22T00:05:44;12.75;;;11.35;;
73474;SDS011;61711;52.266;10.542;2023-06-22T00:08:10;15.35;;;11.55;;
73474;SDS011;61711;52.266;10.542;2023-06-22T00:10:36;12.48;;;10.85;;
73474;SDS011;61711;52.266;10.542;2023-06-22T00:13:02;13.32;;;10.85;;
73474;SDS011;61711;52.266;10.542;2023-06-22T00:15:28;15.55;;;11.55;;
73474;SDS011;61711;52.266;10.542;2023-06-22T00:17:54;14.73;;;11.23;;
73474;SDS011;61711;52.266;10.542;2023-06-22T00:20:22;12.65;;;10.90;;
73474;SDS011;61711;52.266;10.542;2023-06-22T00:22:48;12.65;;;10.80;;
73474;SDS011;61711;52.266;10.542;2023-06-22T00:25:14;12.77;;;11.00;;
73474;SDS011;61711;52.266;10.542;2023-06-22T00:27:40;11.60;;;10.10;;
73474;SDS011;61711;52.266;10.542;2023-06-22T00:30:06;12.63;;;11.07;;
73474;SDS011;61711;52.266;10.542;2023-06-22T00:32:32;14.50;;;11.85;;
73474;SDS011;61711;52.266;10.542;2023-06-22T00:34:58;14.13;;;11.90;;
73474;SDS011;61711;52.266;10.542;2023-06-22T00:37:25;15.38;;;12.05;;
73474;SDS011;61711;52.266;10.542;2023-06-22T00:39:54;15.13;;;12.13;;
73474;SDS011;61711;52.266;10.542;2023-06-22T00:42:20;13.82;;;12.05;;
73474;SDS011;61711;52.266;10.542;2023-06-22T00:44:46;17.00;;;12.27;;
73474;SDS011;61711;52.266;10.542;2023-06-22T00:47:15;15.02;;;12.05;;
73474;SDS011;61711;52.266;10.542;2023-06-22T00:49:42;14.32;;;12.05;;
73474;SDS011;61711;52.266;10.542;2023-06-22T00:52:08;15.20;;;12.30;;
73474;SDS011;61711;52.266;10.542;2023-06-22T00:54:38;16.83;;;13.20;;
73474;SDS011;61711;52.266;10.542;2023-06-22T00:57:04;14.30;;;12.25;;
73474;SDS011;61711;52.266;10.542;2023-06-22T00:59:30;15.75;;;12.50;;
73474;SDS011;61711;52.266;10.542;2023-06-22T01:01:58;16.05;;;12.90;;
73474;SDS011;61711;52.266;10.542;2023-06-22T01:04:33;14.65;;;12.25;;
73474;SDS011;61711;52.266;10.542;2023-06-22T01:07:02;15.88;;;12.73;;
73474;SDS011;61711;52.266;10.542;2023-06-22T01:09:35;14.40;;;12.50;;
73474;SDS011;61711;52.266;10.542;2023-06-22T01:12:06;15.93;;;12.43;;
73474;SDS011;61711;52.266;10.542;2023-06-22T01:14:43;15.18;;;11.93;;
73474;SDS011;61711;52.266;10.542;2023-06-22T01:17:12;15.50;;;12.23;;
73474;SDS011;61711;52.266;10.542;2023-06-22T01:19:48;15.85;;;12.18;;
73474;SDS011;61711;52.266;10.542;2023-06-22T01:22:20;14.55;;;11.80;;
73474;SDS011;61711;52.266;10.542;2023-06-22T01:27:19;16.63;;;12.32;;
73474;SDS011;61711;52.266;10.542;2023-06-22T01:29:47;16.17;;;12.18;;
73474;SDS011;61711;52.266;10.542;2023-06-22T01:32:13;12.73;;;11.23;;
73474;SDS011;61711;52.266;10.542;2023-06-22T01:34:40;14.88;;;11.85;;
73474;SDS011;61711;52.266;10.542;2023-06-22T01:37:06;14.27;;;11.70;;
73474;SDS011;61711;52.266;10.542;2023-06-22T01:39:33;13.88;;;12.27;;
73474;SDS011;61711;52.266;10.542;2023-06-22T01:41:59;14.48;;;12.25;;
73474;SDS011;61711;52.266;10.542;2023-06-22T01:44:25;14.00;;;11.90;;
73474;SDS011;61711;52.266;10.542;2023-06-22T01:46:52;15.02;;;12.75;;
73474;SDS011;61711;52.266;10.542;2023-06-22T01:49:18;14.20;;;12.13;;
73474;SDS011;61711;52.266;10.542;2023-06-22T01:51:44;14.10;;;12.48;;
73474;SDS011;61711;52.266;10.542;2023-06-22T01:54:10;15.52;;;12.82;;
73474;SDS011;61711;52.266;10.542;2023-06-22T01:56:36;16.10;;;12.88;;
73474;SDS011;61711;52.266;10.542;2023-06-22T01:59:14;15.43;;;12.68;;
73474;SDS011;61711;52.266;10.542;2023-06-22T02:01:48;14.80;;;12.48;;
73474;SDS011;61711;52.266;10.542;2023-06-22T02:04:19;16.60;;;13.02;;
73474;SDS011;61711;52.266;10.542;2023-06-22T02:06:45;15.05;;;12.57;;
73474;SDS011;61711;52.266;10.542;2023-06-22T02:09:14;14.50;;;12.68;;
73474;SDS011;61711;52.266;10.542;2023-06-22T02:11:42;15.40;;;12.30;;
73474;SDS011;61711;52.266;10.542;2023-06-22T02:14:09;15.50;;;12.55;;
73474;SDS011;61711;52.266;10.542;2023-06-22T02:16:35;14.48;;;12.98;;
73474;SDS011;61711;52.266;10.542;2023-06-22T02:19:02;14.38;;;12.35;;
73474;SDS011;61711;52.266;10.542;2023-06-22T02:21:29;14.50;;;12.50;;
73474;SDS011;61711;52.266;10.542;2023-06-22T02:23:56;17.88;;;13.50;;
73474;SDS011;61711;52.266;10.542;2023-06-22T02:26:22;18.00;;;13.32;;
73474;SDS011;61711;52.266;10.542;2023-06-22T02:28:49;15.23;;;12.15;;
73474;SDS011;61711;52.266;10.542;2023-06-22T02:31:15;16.60;;;12.95;;
73474;SDS011;61711;52.266;10.542;2023-06-22T02:33:41;14.75;;;13.15;;
73474;SDS011;61711;52.266;10.542;2023-06-22T02:36:08;14.55;;;12.63;;
73474;SDS011;61711;52.266;10.542;2023-06-22T02:38:38;14.38;;;12.52;;
73474;SDS011;61711;52.266;10.542;2023-06-22T02:41:04;14.48;;;12.93;;
73474;SDS011;61711;52.266;10.542;2023-06-22T02:43:31;15.88;;;12.85;;
73474;SDS011;61711;52.266;10.542;2023-06-22T02:45:57;14.18;;;12.27;;
73474;SDS011;61711;52.266;10.542;2023-06-22T02:48:23;14.98;;;12.18;;
73474;SDS011;61711;52.266;10.542;2023-06-22T02:50:49;15.82;;;12.95;;
73474;SDS011;61711;52.266;10.542;2023-06-22T02:53:15;16.65;;;13.00;;
73474;SDS011;61711;52.266;10.542;2023-06-22T02:55:41;14.68;;;12.25;;
73474;SDS011;61711;52.266;10.542;2023-06-22T02:58:07;15.25;;;12.65;;
73474;SDS011;61711;52.266;10.542;2023-06-22T03:00:33;15.38;;;12.85;;
73474;SDS011;61711;52.266;10.542;2023-06-22T03:02:59;15.63;;;11.93;;
73474;SDS011;61711;52.266;10.542;2023-06-22T03:05:25;14.60;;;12.25;;
73474;SDS011;61711;52.266;10.542;2023-06-22T03:07:51;13.90;;;11.68;;
73474;SDS011;61711;52.266;10.542;2023-06-22T03:10:18;14.70;;;11.73;;
73474;SDS011;61711;52.266;10.542;2023-06-22T03:12:44;13.98;;;11.85;;
73474;SDS011;61711;52.266;10.542;2023-06-22T03:15:10;13.75;;;11.65;;
73474;SDS011;61711;52.266;10.542;2023-06-22T03:17:37;15.13;;;11.68;;
73474;SDS011;61711;52.266;10.542;2023-06-22T03:20:06;13.27;;;11.57;;
73474;SDS011;61711;52.266;10.542;2023-06-22T03:22:37;13.80;;;11.70;;
73474;SDS011;61711;52.266;10.542;2023-06-22T03:25:03;14.00;;;11.23;;
73474;SDS011;61711;52.266;10.542;2023-06-22T03:27:29;15.63;;;11.73;;
73474;SDS011;61711;52.266;10.542;2023-06-22T03:29:56;14.57;;;11.80;;
73474;SDS011;61711;52.266;10.542;2023-06-22T03:32:23;14.15;;;11.90;;
73474;SDS011;61711;52.266;10.542;2023-06-22T03:34:49;15.90;;;11.77;;
73474;SDS011;61711;52.266;10.542;2023-06-22T03:37:15;13.05;;;11.52;;
73474;SDS011;61711;52.266;10.542;2023-06-22T03:39:41;14.38;;;11.82;;
73474;SDS011;61711;52.266;10.542;2023-06-22T03:42:07;16.35;;;11.40;;
73474;SDS011;61711;52.266;10.542;2023-06-22T03:44:33;15.77;;;11.73;;
73474;SDS011;61711;52.266;10.542;2023-06-22T03:47:01;14.85;;;11.32;;
73474;SDS011;61711;52.266;10.542;2023-06-22T03:49:27;13.57;;;10.98;;
73474;SDS011;61711;52.266;10.542;2023-06-22T03:51:53;14.90;;;11.55;;
73474;SDS011;61711;52.266;10.542;2023-06-22T03:54:19;16.42;;;11.48;;
73474;SDS011;61711;52.266;10.542;2023-06-22T03:56:45;17.63;;;13.07;;
73474;SDS011;61711;52.266;10.542;2023-06-22T03:59:11;16.42;;;12.68;;
73474;SDS011;61711;52.266;10.542;2023-06-22T04:01:37;13.40;;;11.68;;
73474;SDS011;61711;52.266;10.542;2023-06-22T04:04:03;15.98;;;11.85;;
73474;SDS011;61711;52.266;10.542;2023-06-22T04:06:29;17.77;;;12.10;;
73474;SDS011;61711;52.266;10.542;2023-06-22T04:08:55;15.85;;;11.70;;
73474;SDS011;61711;52.266;10.542;2023-06-22T04:11:21;15.13;;;11.98;;
73474;SDS011;61711;52.266;10.542;2023-06-22T04:13:47;15.60;;;11.77;;
73474;SDS011;61711;52.266;10.542;2023-06-22T04:16:14;14.70;;;11.52;;
73474;SDS011;61711;52.266;10.542;2023-06-22T04:18:40;16.45;;;10.98;;
73474;SDS011;61711;52.266;10.542;2023-06-22T04:21:06;16.15;;;11.52;;
73474;SDS011;61711;52.266;10.542;2023-06-22T04:23:32;13.90;;;11.50;;
73474;SDS011;61711;52.266;10.542;2023-06-22T04:25:58;13.02;;;10.70;;
73474;SDS011;61711;52.266;10.542;2023-06-22T04:28:25;17.17;;;11.18;;
73474;SDS011;61711;52.266;10.542;2023-06-22T04:30:51;14.02;;;10.88;;
73474;SDS011;61711;52.266;10.542;2023-06-22T04:33:17;13.65;;;11.00;;
73474;SDS011;61711;52.266;10.542;2023-06-22T04:35:46;14.27;;;10.68;;
73474;SDS011;61711;52.266;10.542;2023-06-22T04:38:12;15.50;;;11.27;;
73474;SDS011;61711;52.266;10.542;2023-06-22T04:40:38;14.70;;;10.90;;
73474;SDS011;61711;52.266;10.542;2023-06-22T04:43:05;13.27;;;11.05;;
73474;SDS011;61711;52.266;10.542;2023-06-22T04:45:31;13.82;;;10.68;;
73474;SDS011;61711;52.266;10.542;2023-06-22T04:47:58;11.93;;;10.50;;
73474;SDS011;61711;52.266;10.542;2023-06-22T04:50:24;11.93;;;10.05;;
73474;SDS011;61711;52.266;10.542;2023-06-22T04:52:50;14.50;;;10.40;;
73474;SDS011;61711;52.266;10.542;2023-06-22T04:55:16;12.63;;;10.55;;
73474;SDS011;61711;52.266;10.542;2023-06-22T04:57:45;12.68;;;10.13;;
73474;SDS011;61711;52.266;10.542;2023-06-22T05:00:17;11.77;;;10.52;;
73474;SDS011;61711;52.266;10.542;2023-06-22T05:02:48;12.05;;;9.85;;
73474;SDS011;61711;52.266;10.542;2023-06-22T05:05:14;13.88;;;10.02;;
73474;SDS011;61711;52.266;10.542;2023-06-22T05:07:41;12.88;;;10.30;;
73474;SDS011;61711;52.266;10.542;2023-06-22T05:10:08;11.43;;;9.02;;
73474;SDS011;61711;52.266;10.542;2023-06-22T05:12:35;12.50;;;9.80;;
73474;SDS011;61711;52.266;10.542;2023-06-22T05:15:01;10.63;;;9.48;;
73474;SDS011;61711;52.266;10.542;2023-06-22T05:17:27;11.30;;;9.43;;
73474;SDS011;61711;52.266;10.542;2023-06-22T05:19:53;11.18;;;9.30;;
73474;SDS011;61711;52.266;10.542;2023-06-22T05:22:20;12.07;;;9.52;;
73474;SDS011;61711;52.266;10.542;2023-06-22T05:24:46;12.57;;;9.75;;
73474;SDS011;61711;52.266;10.542;2023-06-22T05:27:12;11.45;;;9.18;;
73474;SDS011;61711;52.266;10.542;2023-06-22T05:29:38;13.00;;;9.82;;
73474;SDS011;61711;52.266;10.542;2023-06-22T05:32:04;13.90;;;10.00;;
73474;SDS011;61711;52.266;10.542;2023-06-22T05:34:31;11.27;;;9.43;;
73474;SDS011;61711;52.266;10.542;2023-06-22T05:36:57;11.20;;;9.90;;
73474;SDS011;61711;52.266;10.542;2023-06-22T05:39:26;10.93;;;9.10;;
73474;SDS011;61711;52.266;10.542;2023-06-22T05:41:52;11.00;;;9.18;;
73474;SDS011;61711;52.266;10.542;2023-06-22T05:44:18;10.98;;;9.35;;
73474;SDS011;61711;52.266;10.542;2023-06-22T05:46:44;10.05;;;9.00;;
73474;SDS011;61711;52.266;10.542;2023-06-22T05:49:12;12.40;;;9.05;;
73474;SDS011;61711;52.266;10.542;2023-06-22T05:51:38;10.48;;;9.07;;
73474;SDS011;61711;52.266;10.542;2023-06-22T05:54:04;9.80;;;8.60;;
73474;SDS011;61711;52.266;10.542;2023-06-22T05:56:30;10.07;;;8.98;;
73474;SDS011;61711;52.266;10.542;2023-06-22T05:58:56;11.05;;;8.90;;
73474;SDS011;61711;52.266;10.542;2023-06-22T06:01:22;10.25;;;8.48;;
73474;SDS011;61711;52.266;10.542;2023-06-22T06:03:51;11.15;;;9.02;;
73474;SDS011;61711;52.266;10.542;2023-06-22T06:06:17;10.73;;;8.45;;
73474;SDS011;61711;52.266;10.542;2023-06-22T06:08:46;10.73;;;8.80;;
73474;SDS011;61711;52.266;10.542;2023-06-22T06:11:12;11.93;;;8.90;;
73474;SDS011;61711;52.266;10.542;2023-06-22T06:13:38;10.40;;;9.02;;
73474;SDS011;61711;52.266;10.542;2023-06-22T06:16:04;11.45;;;8.82;;
73474;SDS011;61711;52.266;10.542;2023-06-22T06:18:30;10.93;;;9.30;;
73474;SDS011;61711;52.266;10.542;2023-06-22T06:20:56;11.68;;;8.70;;
73474;SDS011;61711;52.266;10.542;2023-06-22T06:23:22;9.98;;;8.77;;
73474;SDS011;61711;52.266;10.542;2023-06-22T06:25:48;11.30;;;9.00;;
73474;SDS011;61711;52.266;10.542;2023-06-22T06:28:14;9.00;;;7.90;;
73474;SDS011;61711;52.266;10.542;2023-06-22T06:30:40;11.18;;;8.68;;
73474;SDS011;61711;52.266;10.542;2023-06-22T06:33:06;10.15;;;9.13;;
73474;SDS011;61711;52.266;10.542;2023-06-22T06:35:33;9.02;;;8.13;;
73474;SDS011;61711;52.266;10.542;2023-06-22T06:37:59;11.65;;;8.25;;
73474;SDS011;61711;52.266;10.542;2023-06-22T06:40:25;13.23;;;10.80;;
73474;SDS011;61711;52.266;10.542;2023-06-22T06:42:51;12.00;;;8.60;;
73474;SDS011;61711;52.266;10.542;2023-06-22T06:45:18;9.57;;;8.55;;
73474;SDS011;61711;52.266;10.542;2023-06-22T06:47:45;10.70;;;9.07;;
73474;SDS011;61711;52.266;10.542;2023-06-22T06:50:11;10.57;;;8.80;;
73474;SDS011;61711;52.266;10.542;2023-06-22T06:52:37;9.55;;;8.43;;
73474;SDS011;61711;52.266;10.542;2023-06-22T06:55:03;12.50;;;9.23;;
73474;SDS011;61711;52.266;10.542;2023-06-22T06:57:32;12.95;;;9.20;;
73474;SDS011;61711;52.266;10.542;2023-06-22T06:59:59;12.63;;;9.07;;
73474;SDS011;61711;52.266;10.542;2023-06-22T07:02:25;12.63;;;10.38;;
73474;SDS011;61711;52.266;10.542;2023-06-22T07:04:55;12.52;;;9.70;;
73474;SDS011;61711;52.266;10.542;2023-06-22T07:07:21;10.77;;;8.80;;
73474;SDS011;61711;52.266;10.542;2023-06-22T07:09:46;11.43;;;9.13;;
73474;SDS011;61711;52.266;10.542;2023-06-22T07:12:12;10.98;;;8.88;;
73474;SDS011;61711;52.266;10.542;2023-06-22T07:14:39;12.02;;;9.85;;
73474;SDS011;61711;52.266;10.542;2023-06-22T07:17:05;11.98;;;9.20;;
73474;SDS011;61711;52.266;10.542;2023-06-22T07:19:32;11.45;;;9.45;;
73474;SDS011;61711;52.266;10.542;2023-06-22T07:21:58;13.32;;;9.95;;
73474;SDS011;61711;52.266;10.542;2023-06-22T07:24:24;11.02;;;9.82;;
73474;SDS011;61711;52.266;10.542;2023-06-22T07:26:50;12.82;;;9.88;;
73474;SDS011;61711;52.266;10.542;2023-06-22T07:29:17;12.52;;;10.38;;
73474;SDS011;61711;52.266;10.542;2023-06-22T07:31:43;11.48;;;9.40;;
73474;SDS011;61711;52.266;10.542;2023-06-22T07:34:09;13.20;;;11.35;;
73474;SDS011;61711;52.266;10.542;2023-06-22T07:36:35;11.00;;;9.80;;
73474;SDS011;61711;52.266;10.542;2023-06-22T07:39:04;11.73;;;10.13;;
73474;SDS011;61711;52.266;10.542;2023-06-22T07:41:31;14.25;;;9.98;;
73474;SDS011;61711;52.266;10.542;2023-06-22T07:43:57;14.73;;;10.57;;
73474;SDS011;61711;52.266;10.542;2023-06-22T07:46:23;11.93;;;10.25;;
73474;SDS011;61711;52.266;10.542;2023-06-22T07:48:49;11.40;;;9.98;;
73474;SDS011;61711;52.266;10.542;2023-06-22T07:51:16;13.32;;;10.13;;
73474;SDS011;61711;52.266;10.542;2023-06-22T07:53:42;12.38;;;11.07;;
73474;SDS011;61711;52.266;10.542;2023-06-22T07:56:11;14.60;;;11.13;;
73474;SDS011;61711;52.266;10.542;2023-06-22T07:58:38;14.30;;;10.93;;
73474;SDS011;61711;52.266;10.542;2023-06-22T08:01:04;13.73;;;11.20;;
73474;SDS011;61711;52.266;10.542;2023-06-22T08:03:31;15.57;;;11.88;;
73474;SDS011;61711;52.266;10.542;2023-06-22T08:05:57;14.50;;;11.10;;
73474;SDS011;61711;52.266;10.542;2023-06-22T08:08:23;13.68;;;11.82;;
73474;SDS011;61711;52.266;10.542;2023-06-22T08:10:49;14.18;;;11.68;;
73474;SDS011;61711;52.266;10.542;2023-06-22T08:13:15;13.75;;;11.20;;
73474;SDS011;61711;52.266;10.542;2023-06-22T08:15:41;13.77;;;12.35;;
73474;SDS011;61711;52.266;10.542;2023-06-22T08:18:07;16.85;;;12.95;;
73474;SDS011;61711;52.266;10.542;2023-06-22T08:20:33;17.90;;;12.73;;
73474;SDS011;61711;52.266;10.542;2023-06-22T08:22:59;17.00;;;12.60;;
73474;SDS011;61711;52.266;10.542;2023-06-22T08:25:30;15.48;;;12.77;;
73474;SDS011;61711;52.266;10.542;2023-06-22T08:27:57;15.88;;;13.30;;
73474;SDS011;61711;52.266;10.542;2023-06-22T08:30:23;14.02;;;12.38;;
73474;SDS011;61711;52.266;10.542;2023-06-22T08:32:49;16.48;;;12.95;;
73474;SDS011;61711;52.266;10.542;2023-06-22T08:35:15;15.82;;;13.93;;
73474;SDS011;61711;52.266;10.542;2023-06-22T08:37:41;16.27;;;13.75;;
73474;SDS011;61711;52.266;10.542;2023-06-22T08:40:09;17.15;;;13.65;;
73474;SDS011;61711;52.266;10.542;2023-06-22T08:42:40;16.20;;;14.48;;
73474;SDS011;61711;52.266;10.542;2023-06-22T08:45:06;17.30;;;14.45;;
73474;SDS011;61711;52.266;10.542;2023-06-22T08:47:32;15.80;;;14.10;;
73474;SDS011;61711;52.266;10.542;2023-06-22T08:49:59;20.10;;;14.52;;
73474;SDS011;61711;52.266;10.542;2023-06-22T08:52:27;17.27;;;15.07;;
73474;SDS011;61711;52.266;10.542;2023-06-22T08:54:53;16.75;;;14.43;;
73474;SDS011;61711;52.266;10.542;2023-06-22T08:57:20;16.75;;;14.10;;
73474;SDS011;61711;52.266;10.542;2023-06-22T08:59:46;17.15;;;15.10;;
73474;SDS011;61711;52.266;10.542;2023-06-22T09:02:12;17.77;;;15.30;;
73474;SDS011;61711;52.266;10.542;2023-06-22T09:04:39;17.63;;;15.57;;
73474;SDS011;61711;52.266;10.542;2023-06-22T09:07:05;17.17;;;14.98;;
73474;SDS011;61711;52.266;10.542;2023-06-22T09:09:31;17.33;;;15.23;;
73474;SDS011;61711;52.266;10.542;2023-06-22T09:11:57;18.63;;;16.15;;
73474;SDS011;61711;52.266;10.542;2023-06-22T09:14:23;19.17;;;15.55;;
73474;SDS011;61711;52.266;10.542;2023-06-22T09:16:49;16.90;;;15.20;;
73474;SDS011;61711;52.266;10.542;2023-06-22T09:19:15;17.48;;;15.50;;
73474;SDS011;61711;52.266;10.542;2023-06-22T09:21:41;18.52;;;15.70;;
73474;SDS011;61711;52.266;10.542;2023-06-22T09:24:07;18.35;;;15.32;;
73474;SDS011;61711;52.266;10.542;2023-06-22T09:26:33;17.00;;;15.15;;
73474;SDS011;61711;52.266;10.542;2023-06-22T09:28:59;17.65;;;14.98;;
73474;SDS011;61711;52.266;10.542;2023-06-22T09:31:25;16.65;;;14.45;;
73474;SDS011;61711;52.266;10.542;2023-06-22T09:33:52;18.20;;;15.23;;
73474;SDS011;61711;52.266;10.542;2023-06-22T09:36:19;19.02;;;15.93;;
73474;SDS011;61711;52.266;10.542;2023-06-22T09:38:45;18.88;;;14.65;;
73474;SDS011;61711;52.266;10.542;2023-06-22T09:41:11;19.55;;;16.83;;
73474;SDS011;61711;52.266;10.542;2023-06-22T09:43:37;19.55;;;16.17;;
73474;SDS011;61711;52.266;10.542;2023-06-22T09:46:03;18.55;;;15.70;;
73474;SDS011;61711;52.266;10.542;2023-06-22T09:48:29;16.83;;;15.13;;
73474;SDS011;61711;52.266;10.542;2023-06-22T09:50:55;17.65;;;15.85;;
73474;SDS011;61711;52.266;10.542;2023-06-22T09:53:21;16.45;;;14.82;;
73474;SDS011;61711;52.266;10.542;2023-06-22T09:55:47;16.80;;;15.07;;
73474;SDS011;61711;52.266;10.542;2023-06-22T09:58:13;18.65;;;15.40;;
73474;SDS011;61711;52.266;10.542;2023-06-22T10:00:39;17.40;;;15.60;;
73474;SDS011;61711;52.266;10.542;2023-06-22T10:03:06;17.08;;;14.70;;
73474;SDS011;61711;52.266;10.542;2023-06-22T10:05:32;17.52;;;15.65;;
73474;SDS011;61711;52.266;10.542;2023-06-22T10:07:58;17.10;;;15.35;;
73474;SDS011;61711;52.266;10.542;2023-06-22T10:10:24;17.98;;;15.68;;
73474;SDS011;61711;52.266;10.542;2023-06-22T10:12:57;19.05;;;15.45;;
73474;SDS011;61711;52.266;10.542;2023-06-22T10:15:23;17.33;;;15.10;;
73474;SDS011;61711;52.266;10.542;2023-06-22T10:17:49;17.83;;;14.73;;
73474;SDS011;61711;52.266;10.542;2023-06-22T10:20:15;15.90;;;14.30;;
73474;SDS011;61711;52.266;10.542;2023-06-22T10:22:43;17.50;;;15.68;;
73474;SDS011;61711;52.266;10.542;2023-06-22T10:25:10;17.67;;;15.77;;
73474;SDS011;61711;52.266;10.542;2023-06-22T10:27:37;17.55;;;15.75;;
73474;SDS011;61711;52.266;10.542;2023-06-22T10:30:09;18.48;;;15.90;;
73474;SDS011;61711;52.266;10.542;2023-06-22T10:32:37;17.67;;;15.60;;
73474;SDS011;61711;52.266;10.542;2023-06-22T10:35:04;17.42;;;15.73;;
73474;SDS011;61711;52.266;10.542;2023-06-22T10:37:30;18.45;;;15.57;;
73474;SDS011;61711;52.266;10.542;2023-06-22T10:39:56;18.48;;;16.48;;
73474;SDS011;61711;52.266;10.542;2023-06-22T10:42:22;17.58;;;15.68;;
73474;SDS011;61711;52.266;10.542;2023-06-22T10:44:48;17.27;;;15.48;;
73474;SDS011;61711;52.266;10.542;2023-06-22T10:47:14;17.08;;;15.27;;
73474;SDS011;61711;52.266;10.542;2023-06-22T10:49:40;16.38;;;14.55;;
73474;SDS011;61711;52.266;10.542;2023-06-22T10:52:07;17.05;;;15.20;;
73474;SDS011;61711;52.266;10.542;2023-06-22T10:54:33;17.08;;;15.38;;
73474;SDS011;61711;52.266;10.542;2023-06-22T10:57:00;16.95;;;15.25;;
73474;SDS011;61711;52.266;10.542;2023-06-22T10:59:26;18.13;;;14.70;;
73474;SDS011;61711;52.266;10.542;2023-06-22T11:01:53;17.67;;;15.95;;
73474;SDS011;61711;52.266;10.542;2023-06-22T11:04:19;16.42;;;14.77;;
73474;SDS011;61711;52.266;10.542;2023-06-22T11:06:45;15.60;;;14.10;;
73474;SDS011;61711;52.266;10.542;2023-06-22T11:09:11;15.85;;;14.30;;
73474;SDS011;61711;52.266;10.542;2023-06-22T11:11:37;17.13;;;13.52;;
73474;SDS011;61711;52.266;10.542;2023-06-22T11:14:03;15.70;;;13.82;;
73474;SDS011;61711;52.266;10.542;2023-06-22T11:16:29;15.38;;;13.90;;
73474;SDS011;61711;52.266;10.542;2023-06-22T11:18:55;15.80;;;13.65;;
73474;SDS011;61711;52.266;10.542;2023-06-22T11:21:21;18.95;;;14.73;;
73474;SDS011;61711;52.266;10.542;2023-06-22T11:23:47;15.32;;;13.80;;
73474;SDS011;61711;52.266;10.542;2023-06-22T11:26:13;14.95;;;13.30;;
73474;SDS011;61711;52.266;10.542;2023-06-22T11:28:39;14.73;;;13.13;;
73474;SDS011;61711;52.266;10.542;2023-06-22T11:31:05;14.73;;;13.13;;
73474;SDS011;61711;52.266;10.542;2023-06-22T11:33:32;13.50;;;12.20;;
73474;SDS011;61711;52.266;10.542;2023-06-22T11:35:58;13.98;;;12.07;;
73474;SDS011;61711;52.266;10.542;2023-06-22T11:38:25;12.77;;;11.55;;
73474;SDS011;61711;52.266;10.542;2023-06-22T11:40:51;12.27;;;11.02;;
73474;SDS011;61711;52.266;10.542;2023-06-22T11:43:17;14.50;;;13.02;;
73474;SDS011;61711;52.266;10.542;2023-06-22T11:45:43;12.77;;;11.38;;
73474;SDS011;61711;52.266;10.542;2023-06-22T11:48:09;12.77;;;11.18;;
73474;SDS011;61711;52.266;10.542;2023-06-22T11:50:35;12.10;;;10.98;;
73474;SDS011;61711;52.266;10.542;2023-06-22T11:53:04;11.55;;;10.43;;
73474;SDS011;61711;52.266;10.542;2023-06-22T11:55:30;11.32;;;10.13;;
73474;SDS011;61711;52.266;10.542;2023-06-22T11:57:56;14.93;;;10.63;;
73474;SDS011;61711;52.266;10.542;2023-06-22T12:00:28;12.57;;;11.38;;
73474;SDS011;61711;52.266;10.542;2023-06-22T12:02:54;12.30;;;11.20;;
73474;SDS011;61711;52.266;10.542;2023-06-22T12:05:21;11.80;;;10.68;;
73474;SDS011;61711;52.266;10.542;2023-06-22T12:07:49;11.98;;;10.88;;
73474;SDS011;61711;52.266;10.542;2023-06-22T12:10:15;12.45;;;11.25;;
73474;SDS011;61711;52.266;10.542;2023-06-22T12:12:41;11.73;;;10.52;;
73474;SDS011;61711;52.266;10.542;2023-06-22T12:15:08;13.10;;;10.95;;
73474;SDS011;61711;52.266;10.542;2023-06-22T12:17:35;11.60;;;10.55;;
73474;SDS011;61711;52.266;10.542;2023-06-22T12:20:01;13.20;;;11.35;;
73474;SDS011;61711;52.266;10.542;2023-06-22T12:22:30;12.68;;;11.52;;
73474;SDS011;61711;52.266;10.542;2023-06-22T12:24:56;14.02;;;11.07;;
73474;SDS011;61711;52.266;10.542;2023-06-22T12:27:22;12.82;;;11.07;;
73474;SDS011;61711;52.266;10.542;2023-06-22T12:29:48;12.32;;;11.13;;
73474;SDS011;61711;52.266;10.542;2023-06-22T12:32:14;12.23;;;11.02;;
73474;SDS011;61711;52.266;10.542;2023-06-22T12:34:41;12.25;;;11.15;;
73474;SDS011;61711;52.266;10.542;2023-06-22T12:37:07;11.15;;;10.10;;
73474;SDS011;61711;52.266;10.542;2023-06-22T12:39:33;12.55;;;10.65;;
73474;SDS011;61711;52.266;10.542;2023-06-22T12:41:59;14.95;;;11.23;;
73474;SDS011;61711;52.266;10.542;2023-06-22T12:44:26;12.88;;;11.63;;
73474;SDS011;61711;52.266;10.542;2023-06-22T12:46:52;11.85;;;10.75;;
73474;SDS011;61711;52.266;10.542;2023-06-22T12:49:18;12.07;;;10.93;;
73474;SDS011;61711;52.266;10.542;2023-06-22T12:51:44;11.50;;;10.38;;
73474;SDS011;61711;52.266;10.542;2023-06-22T12:54:11;11.93;;;10.90;;
73474;SDS011;61711;52.266;10.542;2023-06-22T12:56:37;10.85;;;9.85;;
73474;SDS011;61711;52.266;10.542;2023-06-22T12:59:03;11.52;;;10.52;;
73474;SDS011;61711;52.266;10.542;2023-06-22T13:01:31;12.10;;;10.85;;
73474;SDS011;61711;52.266;10.542;2023-06-22T13:04:00;12.32;;;11.07;;
73474;SDS011;61711;52.266;10.542;2023-06-22T13:06:26;13.23;;;12.00;;
73474;SDS011;61711;52.266;10.542;2023-06-22T13:08:52;12.65;;;11.45;;
73474;SDS011;61711;52.266;10.542;2023-06-22T13:11:18;13.23;;;11.93;;
73474;SDS011;61711;52.266;10.542;2023-06-22T13:13:44;13.15;;;11.95;;
73474;SDS011;61711;52.266;10.542;2023-06-22T13:16:11;14.00;;;12.73;;
73474;SDS011;61711;52.266;10.542;2023-06-22T13:18:37;13.52;;;12.10;;
73474;SDS011;61711;52.266;10.542;2023-06-22T13:21:03;14.10;;;12.80;;
73474;SDS011;61711;52.266;10.542;2023-06-22T13:23:29;12.77;;;11.68;;
73474;SDS011;61711;52.266;10.542;2023-06-22T13:25:55;13.50;;;11.70;;
73474;SDS011;61711;52.266;10.542;2023-06-22T13:28:21;14.35;;;12.32;;
73474;SDS011;61711;52.266;10.542;2023-06-22T13:30:47;13.07;;;11.63;;
73474;SDS011;61711;52.266;10.542;2023-06-22T13:33:13;12.80;;;11.57;;
73474;SDS011;61711;52.266;10.542;2023-06-22T13:35:39;13.82;;;12.40;;
73474;SDS011;61711;52.266;10.542;2023-06-22T13:38:07;14.35;;;12.90;;
73474;SDS011;61711;52.266;10.542;2023-06-22T13:40:34;13.68;;;12.27;;
73474;SDS011;61711;52.266;10.542;2023-06-22T13:43:00;16.27;;;13.77;;
73474;SDS011;61711;52.266;10.542;2023-06-22T13:45:26;14.18;;;12.88;;
73474;SDS011;61711;52.266;10.542;2023-06-22T13:47:52;15.40;;;13.80;;
73474;SDS011;61711;52.266;10.542;2023-06-22T13:50:18;15.18;;;13.60;;
73474;SDS011;61711;52.266;10.542;2023-06-22T13:52:44;14.52;;;13.13;;
73474;SDS011;61711;52.266;10.542;2023-06-22T13:55:10;15.32;;;13.73;;
73474;SDS011;61711;52.266;10.542;2023-06-22T13:57:39;15.18;;;13.52;;
73474;SDS011;61711;52.266;10.542;2023-06-22T14:00:05;14.38;;;12.98;;
73474;SDS011;61711;52.266;10.542;2023-06-22T14:02:31;15.50;;;14.00;;
73474;SDS011;61711;52.266;10.542;2023-06-22T14:04:57;15.48;;;13.40;;
73474;SDS011;61711;52.266;10.542;2023-06-22T14:07:23;17.17;;;14.75;;
73474;SDS011;61711;52.266;10.542;2023-06-22T14:09:50;14.40;;;13.00;;